createdAt,value
2022-10-22T00:01:05.311Z,100.00
2022-10-22T00:03:32.425Z,100.00
2022-10-22T00:05:59.341Z,100.00
2022-10-22T00:08:26.095Z,100.00
2022-10-22T00:10:53.085Z,100.00
2022-10-22T00:13:20.612Z,100.00
2022-10-22T00:15:47.359Z,100.00
2022-10-22T00:18:14.330Z,100.00
2022-10-22T00:20:41.313Z,100.00
2022-10-22T00:23:08.041Z,100.00
2022-10-22T00:25:36.134Z,100.00
2022-10-22T00:28:03.817Z,100.00
2022-10-22T00:30:30.633Z,100.00
2022-10-22T00:32:57.348Z,100.00
2022-10-22T00:35:24.039Z,100.00
2022-10-22T00:37:50.802Z,100.00
2022-10-22T00:40:17.656Z,100.00
2022-10-22T00:42:44.873Z,100.00
2022-10-22T00:45:11.460Z,100.00
2022-10-22T00:47:42.647Z,100.00
2022-10-22T00:50:17.903Z,100.00
2022-10-22T00:52:44.830Z,100.00
2022-10-22T00:55:13.447Z,100.00
2022-10-22T00:57:41.136Z,100.00
2022-10-22T01:00:08.553Z,100.00
2022-10-22T01:02:35.850Z,100.00
2022-10-22T01:05:02.822Z,100.00
2022-10-22T01:07:29.471Z,100.00
2022-10-22T01:10:26.776Z,100.00
2022-10-22T01:13:10.440Z,100.00
2022-10-22T01:15:56.822Z,100.00
2022-10-22T01:18:27.295Z,100.00
2022-10-22T01:21:05.910Z,100.00
2022-10-22T01:23:35.514Z,100.00
2022-10-22T01:26:31.356Z,100.00
2022-10-22T01:28:57.926Z,100.00
2022-10-22T01:31:28.465Z,100.00
2022-10-22T01:33:55.443Z,100.00
2022-10-22T01:36:22.335Z,100.00
2022-10-22T01:38:50.560Z,100.00
2022-10-22T01:41:17.322Z,100.00
2022-10-22T01:43:44.054Z,100.00
2022-10-22T01:46:12.935Z,100.00
2022-10-22T01:48:51.663Z,100.00
2022-10-22T01:51:27.719Z,100.00
2022-10-22T01:54:00.706Z,100.00
2022-10-22T01:56:30.336Z,100.00
2022-10-22T01:59:18.801Z,100.00
2022-10-22T02:02:13.453Z,100.00
2022-10-22T02:04:58.295Z,100.00
2022-10-22T02:07:37.426Z,100.00
2022-10-22T02:10:07.599Z,100.00
2022-10-22T02:12:35.540Z,100.00
2022-10-22T02:15:03.819Z,100.00
2022-10-22T02:17:33.366Z,100.00
2022-10-22T02:20:12.969Z,100.00
2022-10-22T02:22:40.309Z,100.00
2022-10-22T02:25:08.130Z,100.00
2022-10-22T02:28:12.642Z,100.00
2022-10-22T02:30:42.674Z,100.00
2022-10-22T02:33:16.434Z,100.00
2022-10-22T02:35:43.802Z,100.00
2022-10-22T02:38:11.674Z,100.00
2022-10-22T02:40:38.533Z,100.00
2022-10-22T02:43:06.298Z,100.00
2022-10-22T02:45:34.670Z,100.00
2022-10-22T02:48:01.315Z,100.00
2022-10-22T02:50:27.974Z,100.00
2022-10-22T02:52:54.554Z,100.00
2022-10-22T02:55:21.734Z,100.00
2022-10-22T02:57:48.380Z,100.00
2022-10-22T03:00:15.396Z,100.00
2022-10-22T03:02:42.166Z,100.00
2022-10-22T03:05:09.317Z,100.00
2022-10-22T03:07:36.062Z,100.00
2022-10-22T03:10:03.187Z,100.00
2022-10-22T03:12:29.850Z,100.00
2022-10-22T03:14:56.478Z,100.00
2022-10-22T03:17:23.461Z,100.00
2022-10-22T03:19:50.128Z,100.00
2022-10-22T03:22:23.635Z,100.00
2022-10-22T03:24:54.382Z,100.00
2022-10-22T03:27:23.363Z,100.00
2022-10-22T03:29:52.611Z,100.00
2022-10-22T03:32:19.446Z,100.00
2022-10-22T03:34:46.123Z,100.00
2022-10-22T03:37:12.962Z,100.00
2022-10-22T03:39:40.262Z,100.00
2022-10-22T03:42:08.120Z,100.00
2022-10-22T03:44:37.302Z,100.00
2022-10-22T03:47:04.525Z,100.00
2022-10-22T03:49:31.289Z,100.00
2022-10-22T03:52:14.001Z,100.00
2022-10-22T03:54:42.188Z,100.00
2022-10-22T03:57:10.365Z,100.00
2022-10-22T03:59:42.605Z,100.00
2022-10-22T04:02:10.846Z,100.00
2022-10-22T04:04:38.202Z,100.00
2022-10-22T04:07:06.723Z,100.00
2022-10-22T04:09:34.475Z,100.00
2022-10-22T04:12:01.461Z,100.00
2022-10-22T04:14:28.178Z,100.00
2022-10-22T04:16:54.865Z,100.00
2022-10-22T04:19:21.602Z,100.00
2022-10-22T04:21:48.242Z,100.00
2022-10-22T04:24:15.004Z,100.00
2022-10-22T04:26:41.768Z,100.00
2022-10-22T04:29:11.911Z,100.00
2022-10-22T04:31:41.867Z,100.00
2022-10-22T04:34:08.661Z,100.00
2022-10-22T04:36:35.347Z,100.00
2022-10-22T04:39:02.694Z,100.00
2022-10-22T04:41:32.628Z,100.00
2022-10-22T04:44:00.225Z,100.00
2022-10-22T04:46:29.838Z,100.00
2022-10-22T04:48:56.521Z,100.00
2022-10-22T04:51:25.468Z,100.00
2022-10-22T04:53:52.302Z,100.00
2022-10-22T04:56:24.989Z,100.00
2022-10-22T04:58:54.644Z,100.00
2022-10-22T05:01:24.090Z,100.00
2022-10-22T05:03:53.115Z,100.00
2022-10-22T05:06:27.349Z,100.00
2022-10-22T05:08:56.312Z,100.00
2022-10-22T05:11:28.675Z,100.00
2022-10-22T05:13:57.199Z,100.00
2022-10-22T05:16:24.723Z,100.00
2022-10-22T05:18:51.399Z,100.00
2022-10-22T05:21:20.549Z,100.00
2022-10-22T05:23:48.993Z,100.00
2022-10-22T05:26:19.085Z,100.00
2022-10-22T05:28:47.014Z,100.00
2022-10-22T05:31:14.437Z,100.00
2022-10-22T05:33:42.237Z,100.00
2022-10-22T05:36:12.603Z,100.00
2022-10-22T05:38:39.502Z,100.00
2022-10-22T05:41:15.375Z,100.00
2022-10-22T05:43:42.626Z,100.00
2022-10-22T05:46:18.766Z,100.00
2022-10-22T05:48:56.938Z,100.00
2022-10-22T05:51:24.752Z,100.00
2022-10-22T05:53:56.828Z,100.00
2022-10-22T05:56:24.497Z,100.00
2022-10-22T05:58:51.692Z,100.00
2022-10-22T06:01:24.302Z,100.00
2022-10-22T06:03:54.710Z,100.00
2022-10-22T06:06:34.300Z,100.00
2022-10-22T06:09:04.198Z,100.00
2022-10-22T06:11:34.263Z,100.00
2022-10-22T06:14:02.528Z,93.64
2022-10-22T06:16:30.102Z,80.80
2022-10-22T06:19:00.078Z,70.55
2022-10-22T06:21:26.749Z,65.80
2022-10-22T06:23:59.491Z,62.14
2022-10-22T06:26:26.529Z,63.24
2022-10-22T06:28:53.315Z,60.81
2022-10-22T06:31:20.105Z,62.40
2022-10-22T06:33:46.784Z,62.62
2022-10-22T06:36:16.634Z,59.95
2022-10-22T06:38:43.438Z,57.39
2022-10-22T06:41:13.412Z,54.44
2022-10-22T06:43:41.235Z,51.44
2022-10-22T06:46:09.938Z,49.40
2022-10-22T06:48:38.086Z,46.03
2022-10-22T06:51:11.128Z,49.69
2022-10-22T06:53:39.206Z,47.95
2022-10-22T06:56:11.281Z,50.04
2022-10-22T06:58:38.455Z,48.46
2022-10-22T07:01:13.474Z,46.38
2022-10-22T07:03:41.393Z,45.47
2022-10-22T07:06:10.934Z,43.46
2022-10-22T07:08:38.964Z,40.12
2022-10-22T07:11:17.346Z,42.87
2022-10-22T07:13:45.410Z,43.69
2022-10-22T07:16:12.735Z,38.31
2022-10-22T07:18:40.568Z,40.07
2022-10-22T07:21:08.868Z,38.46
2022-10-22T07:23:35.981Z,37.29
2022-10-22T07:26:03.582Z,37.57
2022-10-22T07:28:30.888Z,40.00
2022-10-22T07:30:57.579Z,40.25
2022-10-22T07:33:24.243Z,41.93
2022-10-22T07:35:50.928Z,37.54
2022-10-22T07:38:17.638Z,34.04
2022-10-22T07:40:44.345Z,32.24
2022-10-22T07:43:11.026Z,30.57
2022-10-22T07:45:37.723Z,31.88
2022-10-22T07:48:04.727Z,30.57
2022-10-22T07:50:31.398Z,30.56
2022-10-22T07:52:58.467Z,31.18
2022-10-22T07:55:25.862Z,34.95
2022-10-22T07:57:52.787Z,32.46
2022-10-22T08:00:23.038Z,32.00
2022-10-22T08:02:52.363Z,32.04
2022-10-22T08:05:19.486Z,32.38
2022-10-22T08:07:46.401Z,31.02
2022-10-22T08:10:13.723Z,32.92
2022-10-22T08:12:41.660Z,31.34
2022-10-22T08:15:09.955Z,32.13
2022-10-22T08:17:36.869Z,32.57
2022-10-22T08:20:04.430Z,31.02
2022-10-22T08:22:31.587Z,30.60
2022-10-22T08:24:59.164Z,29.46
2022-10-22T08:27:26.125Z,29.01
2022-10-22T08:29:52.772Z,31.18
2022-10-22T08:32:19.627Z,28.27
2022-10-22T08:34:46.292Z,28.36
2022-10-22T08:37:14.544Z,25.94
2022-10-22T08:39:41.689Z,29.58
2022-10-22T08:42:27.251Z,30.55
2022-10-22T08:45:09.135Z,26.67
2022-10-22T08:47:59.806Z,26.25
2022-10-22T08:51:02.041Z,25.09
2022-10-22T08:53:38.782Z,26.08
2022-10-22T08:56:05.675Z,27.28
2022-10-22T08:59:07.722Z,28.34
2022-10-22T09:01:40.187Z,27.53
2022-10-22T09:04:17.327Z,28.99
2022-10-22T09:06:44.520Z,26.99
2022-10-22T09:09:18.772Z,26.15
2022-10-22T09:11:48.922Z,25.70
2022-10-22T09:14:22.425Z,27.01
2022-10-22T09:17:20.972Z,26.52
2022-10-22T09:19:54.402Z,24.98
2022-10-22T09:23:09.351Z,26.30
2022-10-22T09:25:37.115Z,24.75
2022-10-22T09:28:04.613Z,25.95
2022-10-22T09:30:35.502Z,25.34
2022-10-22T09:33:12.583Z,25.92
2022-10-22T09:35:53.271Z,25.73
2022-10-22T09:38:28.390Z,27.29
2022-10-22T09:40:57.336Z,26.71
2022-10-22T09:43:24.403Z,25.48
2022-10-22T09:46:18.709Z,27.24
2022-10-22T09:48:51.994Z,25.57
2022-10-22T09:51:24.392Z,26.68
2022-10-22T09:54:00.142Z,25.83
2022-10-22T09:56:32.574Z,26.78
2022-10-22T09:58:59.298Z,26.53
2022-10-22T10:01:32.895Z,26.89
2022-10-22T10:04:11.551Z,26.97
2022-10-22T10:06:41.179Z,26.05
2022-10-22T10:09:19.559Z,24.96
2022-10-22T10:11:51.689Z,25.20
2022-10-22T10:14:29.067Z,23.54
2022-10-22T10:17:08.940Z,24.26
2022-10-22T10:19:48.132Z,24.41
2022-10-22T10:22:42.247Z,24.04
2022-10-22T10:25:14.916Z,23.44
2022-10-22T10:27:47.759Z,23.55
2022-10-22T10:30:18.841Z,23.94
2022-10-22T10:32:57.642Z,22.95
2022-10-22T10:35:28.557Z,24.36
2022-10-22T10:38:16.602Z,22.69
2022-10-22T10:41:09.326Z,22.60
2022-10-22T10:43:45.457Z,22.34
2022-10-22T10:46:20.627Z,23.16
2022-10-22T10:48:53.778Z,22.55
2022-10-22T10:51:23.222Z,22.17
2022-10-22T10:54:27.667Z,22.53
2022-10-22T10:57:17.958Z,22.49
2022-10-22T11:00:06.139Z,22.44
2022-10-22T11:02:48.058Z,22.92
2022-10-22T11:05:48.843Z,22.45
2022-10-22T11:08:30.078Z,22.66
2022-10-22T11:11:06.582Z,21.16
2022-10-22T11:14:00.466Z,21.95
2022-10-22T11:16:37.103Z,22.31
2022-10-22T11:19:22.634Z,22.27
2022-10-22T11:22:16.348Z,23.37
2022-10-22T11:25:04.029Z,23.02
2022-10-22T11:27:39.373Z,22.54
2022-10-22T11:30:20.707Z,22.40
2022-10-22T11:32:57.591Z,22.40
2022-10-22T11:35:27.478Z,22.53
2022-10-22T11:37:57.167Z,22.94
2022-10-22T11:40:29.901Z,22.83
2022-10-22T11:43:08.569Z,22.90
2022-10-22T11:45:38.038Z,23.22
2022-10-22T11:48:10.771Z,23.84
2022-10-22T11:50:50.950Z,24.89
2022-10-22T11:53:39.261Z,25.40
2022-10-22T11:56:13.153Z,26.11
2022-10-22T11:58:52.146Z,26.31
2022-10-22T12:01:39.819Z,25.92
2022-10-22T12:04:17.671Z,25.87
2022-10-22T12:07:30.438Z,25.80
2022-10-22T12:09:58.520Z,25.26
2022-10-22T12:12:25.200Z,26.47
2022-10-22T12:14:59.436Z,26.06
2022-10-22T12:17:28.701Z,26.44
2022-10-22T12:20:14.387Z,27.15
2022-10-22T12:22:42.240Z,27.19
2022-10-22T12:25:23.090Z,28.68
2022-10-22T12:27:55.614Z,27.63
2022-10-22T12:30:28.130Z,28.67
2022-10-22T12:32:57.411Z,28.97
2022-10-22T12:35:28.180Z,29.11
2022-10-22T12:37:57.455Z,29.52
2022-10-22T12:40:29.791Z,31.23
2022-10-22T12:43:11.620Z,30.94
2022-10-22T12:45:39.475Z,31.60
2022-10-22T12:48:14.609Z,31.87
2022-10-22T12:50:44.491Z,32.86
2022-10-22T12:53:26.390Z,33.73
2022-10-22T12:55:55.541Z,33.43
2022-10-22T12:58:34.145Z,34.23
2022-10-22T13:01:02.292Z,35.57
2022-10-22T13:04:03.628Z,34.65
2022-10-22T13:06:33.750Z,34.41
2022-10-22T13:09:00.621Z,34.42
2022-10-22T13:11:58.358Z,34.56
2022-10-22T13:14:24.994Z,34.79
2022-10-22T13:17:36.839Z,35.30
2022-10-22T13:20:22.586Z,34.48
2022-10-22T13:23:05.849Z,35.02
2022-10-22T13:25:35.132Z,35.58
2022-10-22T13:28:16.801Z,35.58
2022-10-22T13:30:54.293Z,35.85
2022-10-22T13:33:29.467Z,36.51
2022-10-22T13:35:57.039Z,36.24
2022-10-22T13:38:26.190Z,37.51
2022-10-22T13:40:53.239Z,37.55
2022-10-22T13:43:20.337Z,37.03
2022-10-22T13:45:48.862Z,37.93
2022-10-22T13:48:19.211Z,38.85
2022-10-22T13:50:55.652Z,38.91
2022-10-22T13:53:25.393Z,38.18
2022-10-22T13:55:52.109Z,38.68
2022-10-22T13:58:21.741Z,38.88
2022-10-22T14:00:55.810Z,39.27
2022-10-22T14:03:26.350Z,39.52
2022-10-22T14:05:53.062Z,40.00
2022-10-22T14:08:23.423Z,40.40
2022-10-22T14:10:50.201Z,40.54
2022-10-22T14:13:18.346Z,40.93
2022-10-22T14:15:48.051Z,41.27
2022-10-22T14:18:27.487Z,41.80
2022-10-22T14:20:57.468Z,41.68
2022-10-22T14:23:29.524Z,41.25
2022-10-22T14:25:57.769Z,39.94
2022-10-22T14:28:24.497Z,40.42
2022-10-22T14:30:52.366Z,40.87
2022-10-22T14:33:28.958Z,43.27
2022-10-22T14:36:02.077Z,43.41
2022-10-22T14:38:29.406Z,46.35
2022-10-22T14:40:56.751Z,47.33
2022-10-22T14:43:27.088Z,48.46
2022-10-22T14:45:54.452Z,48.21
2022-10-22T14:48:21.244Z,48.83
2022-10-22T14:50:49.182Z,49.32
2022-10-22T14:53:16.893Z,48.66
2022-10-22T14:55:47.243Z,50.44
2022-10-22T14:58:14.625Z,51.51
2022-10-22T15:00:42.733Z,52.26
2022-10-22T15:03:10.376Z,53.12
2022-10-22T15:05:44.328Z,53.44
2022-10-22T15:08:12.885Z,54.33
2022-10-22T15:10:40.252Z,55.79
2022-10-22T15:13:07.178Z,56.63
2022-10-22T15:15:36.636Z,59.46
2022-10-22T15:18:06.082Z,60.33
2022-10-22T15:20:32.890Z,61.27
2022-10-22T15:22:59.611Z,61.62
2022-10-22T15:25:26.378Z,61.37
2022-10-22T15:27:54.928Z,62.32
2022-10-22T15:30:26.351Z,63.20
2022-10-22T15:32:53.075Z,62.43
2022-10-22T15:35:19.722Z,67.08
2022-10-22T15:37:46.411Z,71.62
2022-10-22T15:40:13.036Z,72.84
2022-10-22T15:42:40.039Z,72.04
2022-10-22T15:45:07.460Z,77.05
2022-10-22T15:47:34.176Z,79.56
2022-10-22T15:50:01.015Z,88.09
2022-10-22T15:52:28.486Z,89.38
2022-10-22T15:54:55.548Z,87.77
2022-10-22T15:57:22.377Z,99.46
2022-10-22T15:59:50.190Z,98.35
2022-10-22T16:02:16.925Z,96.47
2022-10-22T16:04:43.695Z,96.73
2022-10-22T16:07:10.451Z,94.98
2022-10-22T16:09:37.186Z,96.84
2022-10-22T16:12:04.017Z,100.00
2022-10-22T16:14:30.702Z,100.00
2022-10-22T16:16:57.625Z,100.00
2022-10-22T16:19:24.777Z,100.00
2022-10-22T16:21:53.338Z,100.00
2022-10-22T16:24:21.118Z,100.00
2022-10-22T16:26:48.199Z,100.00
2022-10-22T16:29:15.087Z,100.00
2022-10-22T16:31:43.698Z,100.00
2022-10-22T16:34:10.651Z,100.00
2022-10-22T16:36:38.403Z,100.00
2022-10-22T16:39:06.051Z,100.00
2022-10-22T16:41:36.469Z,100.00
2022-10-22T16:44:06.710Z,100.00
2022-10-22T16:46:34.899Z,100.00
2022-10-22T16:49:01.619Z,100.00
2022-10-22T16:51:28.957Z,100.00
2022-10-22T16:53:57.531Z,100.00
2022-10-22T16:56:25.697Z,100.00
2022-10-22T16:58:55.366Z,100.00
2022-10-22T17:01:26.247Z,100.00
2022-10-22T17:03:54.853Z,100.00
2022-10-22T17:06:23.615Z,100.00
2022-10-22T17:08:50.429Z,100.00
2022-10-22T17:11:21.235Z,100.00
2022-10-22T17:13:51.305Z,100.00
2022-10-22T17:16:20.028Z,100.00
2022-10-22T17:18:47.148Z,100.00
2022-10-22T17:21:15.372Z,100.00
2022-10-22T17:23:42.821Z,100.00
2022-10-22T17:26:16.170Z,100.00
2022-10-22T17:28:43.478Z,100.00
2022-10-22T17:31:18.036Z,100.00
2022-10-22T17:33:45.619Z,100.00
2022-10-22T17:36:13.760Z,100.00
2022-10-22T17:38:42.162Z,100.00
2022-10-22T17:41:14.565Z,100.00
2022-10-22T17:43:41.585Z,100.00
2022-10-22T17:46:14.608Z,100.00
2022-10-22T17:48:41.217Z,100.00
2022-10-22T17:51:09.142Z,100.00
2022-10-22T17:53:36.201Z,100.00
2022-10-22T17:56:06.989Z,100.00
2022-10-22T17:58:33.705Z,100.00
2022-10-22T18:01:00.412Z,100.00
2022-10-22T18:03:28.014Z,100.00
2022-10-22T18:05:55.314Z,100.00
2022-10-22T18:08:24.180Z,100.00
2022-10-22T18:10:50.871Z,100.00
2022-10-22T18:13:17.633Z,100.00
2022-10-22T18:15:44.256Z,100.00
2022-10-22T18:18:11.147Z,100.00
2022-10-22T18:20:37.846Z,100.00
2022-10-22T18:23:04.733Z,100.00
2022-10-22T18:25:31.893Z,100.00
2022-10-22T18:27:58.627Z,100.00
2022-10-22T18:30:25.363Z,100.00
2022-10-22T18:32:52.083Z,100.00
2022-10-22T18:35:18.784Z,100.00
2022-10-22T18:37:45.488Z,100.00
2022-10-22T18:40:14.705Z,100.00
2022-10-22T18:42:42.173Z,100.00
2022-10-22T18:45:10.607Z,100.00
2022-10-22T18:47:40.554Z,100.00
2022-10-22T18:50:08.261Z,100.00
2022-10-22T18:52:35.300Z,100.00
2022-10-22T18:55:02.382Z,100.00
2022-10-22T18:57:29.025Z,100.00
2022-10-22T18:59:58.581Z,100.00
2022-10-22T19:02:26.613Z,100.00
2022-10-22T19:04:53.303Z,100.00
2022-10-22T19:07:19.974Z,100.00
2022-10-22T19:09:46.668Z,100.00
2022-10-22T19:12:15.092Z,100.00
2022-10-22T19:14:42.835Z,100.00
2022-10-22T19:17:09.699Z,100.00
2022-10-22T19:19:36.437Z,100.00
2022-10-22T19:22:03.193Z,100.00
2022-10-22T19:24:30.398Z,100.00
2022-10-22T19:26:57.099Z,100.00
2022-10-22T19:29:23.801Z,100.00
2022-10-22T19:31:53.227Z,100.00
2022-10-22T19:34:20.668Z,100.00
2022-10-22T19:36:47.587Z,100.00
2022-10-22T19:39:17.786Z,100.00
2022-10-22T19:41:44.789Z,100.00
2022-10-22T19:44:11.566Z,100.00
2022-10-22T19:46:38.858Z,100.00
2022-10-22T19:49:05.603Z,100.00
2022-10-22T19:51:34.470Z,100.00
2022-10-22T19:54:04.241Z,100.00
2022-10-22T19:56:31.535Z,100.00
2022-10-22T19:58:58.945Z,100.00
2022-10-22T20:01:26.534Z,100.00
2022-10-22T20:03:53.702Z,100.00
2022-10-22T20:06:21.925Z,100.00
2022-10-22T20:08:52.351Z,100.00
2022-10-22T20:11:24.675Z,100.00
2022-10-22T20:13:52.564Z,100.00
2022-10-22T20:16:23.288Z,100.00
2022-10-22T20:18:50.962Z,100.00
2022-10-22T20:21:19.410Z,100.00
2022-10-22T20:23:47.168Z,100.00
2022-10-22T20:26:13.924Z,100.00
2022-10-22T20:28:40.665Z,100.00
2022-10-22T20:31:12.287Z,100.00
2022-10-22T20:33:39.298Z,100.00
2022-10-22T20:36:09.263Z,100.00
2022-10-22T20:41:11.867Z,100.00
2022-10-22T20:43:38.559Z,100.00
2022-10-22T20:46:05.422Z,100.00
2022-10-22T20:48:32.590Z,100.00
2022-10-22T20:51:00.158Z,100.00
2022-10-22T20:53:27.815Z,100.00
2022-10-22T20:55:57.738Z,100.00
2022-10-22T20:58:26.841Z,100.00
2022-10-22T21:00:55.276Z,100.00
2022-10-22T21:03:22.512Z,100.00
2022-10-22T21:05:49.859Z,100.00
2022-10-22T21:08:17.706Z,100.00
2022-10-22T21:10:49.271Z,100.00
2022-10-22T21:13:16.891Z,100.00
2022-10-22T21:15:43.638Z,100.00
2022-10-22T21:18:10.384Z,100.00
2022-10-22T21:20:39.746Z,100.00
2022-10-22T21:23:06.813Z,100.00
2022-10-22T21:25:33.785Z,100.00
2022-10-22T21:28:00.691Z,100.00
2022-10-22T21:30:27.668Z,100.00
2022-10-22T21:32:56.867Z,100.00
2022-10-22T21:35:24.038Z,100.00
2022-10-22T21:37:50.870Z,100.00
2022-10-22T21:40:19.237Z,100.00
2022-10-22T21:42:45.945Z,100.00
2022-10-22T21:45:15.615Z,100.00
2022-10-22T21:47:44.600Z,100.00
2022-10-22T21:50:11.536Z,100.00
2022-10-22T21:52:38.469Z,100.00
2022-10-22T21:55:05.603Z,100.00
2022-10-22T21:57:32.671Z,100.00
2022-10-22T21:59:59.666Z,100.00
2022-10-22T22:02:28.713Z,100.00
2022-10-22T22:04:55.561Z,100.00
2022-10-22T22:07:22.415Z,100.00
2022-10-22T22:09:50.222Z,100.00
2022-10-22T22:12:17.393Z,100.00
2022-10-22T22:14:44.466Z,100.00
2022-10-22T22:17:11.214Z,100.00
2022-10-22T22:19:41.137Z,100.00
2022-10-22T22:22:07.817Z,100.00
2022-10-22T22:24:34.584Z,100.00
2022-10-22T22:27:01.758Z,100.00
2022-10-22T22:29:28.362Z,100.00
2022-10-22T22:31:56.242Z,100.00
2022-10-22T22:34:22.893Z,100.00
2022-10-22T22:36:49.877Z,100.00
2022-10-22T22:39:19.458Z,100.00
2022-10-22T22:41:46.985Z,100.00
2022-10-22T22:44:13.703Z,100.00
2022-10-22T22:46:40.679Z,100.00
2022-10-22T22:49:08.143Z,100.00
2022-10-22T22:51:34.939Z,100.00
2022-10-22T22:54:02.277Z,100.00
2022-10-22T22:56:31.186Z,100.00
2022-10-22T22:58:58.433Z,100.00
2022-10-22T23:01:32.407Z,100.00
2022-10-22T23:04:02.077Z,100.00
2022-10-22T23:06:32.015Z,100.00
2022-10-22T23:08:59.534Z,100.00
2022-10-22T23:11:27.366Z,100.00
2022-10-22T23:14:03.293Z,100.00
2022-10-22T23:16:32.478Z,100.00
2022-10-22T23:19:00.454Z,100.00
2022-10-22T23:21:37.868Z,100.00
2022-10-22T23:24:11.224Z,100.00
2022-10-22T23:26:41.906Z,100.00
2022-10-22T23:29:12.597Z,100.00
2022-10-22T23:31:39.436Z,100.00
2022-10-22T23:34:07.538Z,100.00
2022-10-22T23:36:36.243Z,100.00
2022-10-22T23:39:05.318Z,100.00
2022-10-22T23:41:32.056Z,100.00
2022-10-22T23:43:58.961Z,100.00
2022-10-22T23:46:25.636Z,100.00
2022-10-22T23:48:53.851Z,100.00
2022-10-22T23:51:21.790Z,100.00
2022-10-22T23:53:55.562Z,100.00
2022-10-22T23:56:22.247Z,100.00
2022-10-22T23:58:53.448Z,100.00
